Time;durP1;ratioP1;P1;durP2;ratioP2;P2;SDS_P1;SDS_P2;PMS_P1;PMS_P2;Temp;Humidity;BMP_temperature;BMP_pressure;BME280_temperature;BME280_humidity;BME280_pressure;Samples;Min_cycle;Max_cycle;Signal;HPM_P1;HPM_P2
2023/12/01 00:00:30;;;;;;;37.70;26.30;;;;;;;1.22;100.00;100300.47;4819293;29;20495;-65
2023/12/01 00:03:18;;;;;;;38.97;25.73;;;;;;;1.13;100.00;100307.16;4844396;29;20045;-65
2023/12/01 00:06:08;;;;;;;35.47;23.45;;;;;;;1.03;100.00;100317.53;4838217;29;20042;-65
2023/12/01 00:08:56;;;;;;;41.88;26.98;;;;;;;0.98;100.00;100314.69;4846311;29;20062;-66
2023/12/01 00:11:44;;;;;;;39.92;26.23;;;;;;;0.90;100.00;100320.34;4844280;29;20102;-65
2023/12/01 00:14:32;;;;;;;39.25;25.85;;;;;;;0.83;100.00;100318.50;4856474;29;20546;-66
2023/12/01 00:17:20;;;;;;;42.05;27.85;;;;;;;0.72;100.00;100310.31;4845094;29;20089;-65
2023/12/01 00:20:08;;;;;;;40.92;28.38;;;;;;;0.62;100.00;100310.78;4843884;29;20474;-65
2023/12/01 00:22:58;;;;;;;43.97;28.05;;;;;;;0.57;100.00;100313.31;4843432;29;20080;-64
2023/12/01 00:25:46;;;;;;;42.72;28.63;;;;;;;0.52;100.00;100318.50;4833834;29;20372;-65
2023/12/01 00:28:35;;;;;;;39.03;25.98;;;;;;;0.44;100.00;100318.75;4824736;29;20564;-65
2023/12/01 00:31:23;;;;;;;42.22;26.02;;;;;;;0.47;100.00;100318.31;4834373;29;20054;-65
2023/12/01 00:34:11;;;;;;;43.85;25.77;;;;;;;0.51;100.00;100327.56;4843160;29;20133;-66
2023/12/01 00:36:59;;;;;;;38.05;22.80;;;;;;;0.46;100.00;100328.22;4838892;29;20502;-64
2023/12/01 00:39:48;;;;;;;41.53;25.73;;;;;;;0.40;100.00;100329.06;4841828;29;20181;-64
2023/12/01 00:42:36;;;;;;;38.25;25.05;;;;;;;0.41;100.00;100328.84;4840732;29;20099;-65
2023/12/01 00:45:24;;;;;;;38.30;23.83;;;;;;;0.42;100.00;100333.16;4842174;29;20516;-64
2023/12/01 00:48:12;;;;;;;37.72;23.73;;;;;;;0.39;100.00;100327.44;4805898;29;20065;-65
2023/12/01 00:51:02;;;;;;;37.00;21.92;;;;;;;0.41;100.00;100338.75;4829884;29;20140;-65
2023/12/01 00:53:50;;;;;;;38.75;24.52;;;;;;;0.48;100.00;100344.06;4838032;29;20042;-65
2023/12/01 00:56:38;;;;;;;40.25;25.95;;;;;;;0.68;100.00;100336.75;4842416;29;20050;-67
2023/12/01 00:59:26;;;;;;;39.17;24.05;;;;;;;0.78;100.00;100347.00;4826034;29;20130;-65
2023/12/01 01:02:14;;;;;;;43.97;27.48;;;;;;;0.72;100.00;100343.34;4812759;29;20147;-66
2023/12/01 01:05:03;;;;;;;40.47;26.10;;;;;;;0.65;100.00;100347.91;4823644;29;20511;-66
2023/12/01 01:07:51;;;;;;;40.05;24.40;;;;;;;0.56;100.00;100343.84;4823984;29;20057;-65
2023/12/01 01:10:39;;;;;;;38.47;24.33;;;;;;;0.45;100.00;100347.19;4811076;29;20058;-64
2023/12/01 01:13:28;;;;;;;43.65;26.50;;;;;;;0.40;100.00;100351.31;4812532;29;20051;-64
2023/12/01 01:16:16;;;;;;;48.00;27.42;;;;;;;0.39;100.00;100352.34;4821446;29;20464;-64
2023/12/01 01:19:04;;;;;;;49.08;29.90;;;;;;;0.46;100.00;100346.97;4823216;29;20179;-65
2023/12/01 01:21:52;;;;;;;39.20;24.20;;;;;;;0.46;100.00;100355.03;4824079;29;20050;-64
2023/12/01 01:24:41;;;;;;;39.10;24.92;;;;;;;0.48;100.00;100354.78;4798204;29;20461;-64
2023/12/01 01:27:29;;;;;;;40.15;24.00;;;;;;;0.42;100.00;100357.28;4811472;29;20067;-65
2023/12/01 01:30:17;;;;;;;46.30;28.33;;;;;;;0.47;100.00;100366.56;4824954;29;20062;-65
2023/12/01 01:33:05;;;;;;;47.92;28.00;;;;;;;0.42;100.00;100359.16;4834453;29;20058;-64
2023/12/01 01:35:53;;;;;;;41.63;26.30;;;;;;;0.35;100.00;100358.34;4828724;29;20058;-64
2023/12/01 01:38:41;;;;;;;46.33;28.20;;;;;;;0.34;100.00;100365.56;4833793;29;20065;-64
2023/12/01 01:41:29;;;;;;;48.78;29.13;;;;;;;0.33;100.00;100363.91;4841337;29;20093;-66
2023/12/01 01:44:17;;;;;;;47.22;27.50;;;;;;;0.29;100.00;100361.88;4827265;29;20046;-64
2023/12/01 01:47:05;;;;;;;42.92;25.42;;;;;;;0.24;100.00;100364.38;4824383;29;20132;-63
2023/12/01 01:49:54;;;;;;;50.72;29.95;;;;;;;0.23;100.00;100370.75;4824157;29;20507;-65
2023/12/01 01:52:43;;;;;;;45.80;27.55;;;;;;;0.24;100.00;100373.25;4833318;29;20077;-65
2023/12/01 01:55:31;;;;;;;46.17;28.67;;;;;;;0.32;100.00;100369.50;4824542;29;20074;-66
2023/12/01 01:58:19;;;;;;;49.50;30.00;;;;;;;0.34;100.00;100375.47;4817699;29;20050;-63
2023/12/01 02:01:07;;;;;;;42.30;26.92;;;;;;;0.21;100.00;100381.69;4831849;29;20107;-65
2023/12/01 02:03:56;;;;;;;54.72;32.63;;;;;;;0.10;100.00;100379.69;4829717;29;20046;-64
2023/12/01 02:06:47;;;;;;;51.60;30.83;;;;;;;0.12;100.00;100385.63;4842474;29;20073;-63
2023/12/01 02:09:36;;;;;;;44.13;25.23;;;;;;;0.12;100.00;100385.63;4826954;29;20042;-62
2023/12/01 02:12:24;;;;;;;57.03;31.17;;;;;;;0.29;100.00;100381.47;4852899;29;20408;-64
2023/12/01 02:15:12;;;;;;;51.38;29.02;;;;;;;0.28;100.00;100382.47;4831805;29;20050;-65
2023/12/01 02:18:00;;;;;;;52.42;30.40;;;;;;;0.26;100.00;100381.06;4811305;29;20058;-63
2023/12/01 02:20:49;;;;;;;55.53;31.75;;;;;;;0.12;100.00;100381.09;4823507;29;20537;-65
2023/12/01 02:23:38;;;;;;;58.15;32.17;;;;;;;0.16;100.00;100386.84;4826931;29;20065;-66
2023/12/01 02:26:26;;;;;;;59.15;32.40;;;;;;;0.11;100.00;100384.81;4822508;29;20123;-66
2023/12/01 02:29:14;;;;;;;54.63;30.02;;;;;;;0.13;100.00;100389.97;4824321;29;20596;-65
2023/12/01 02:32:02;;;;;;;53.80;30.17;;;;;;;0.16;100.00;100393.03;4812053;29;20088;-65
2023/12/01 02:34:50;;;;;;;60.58;34.45;;;;;;;0.27;100.00;100394.25;4826095;29;20055;-66
2023/12/01 02:37:38;;;;;;;59.90;34.72;;;;;;;0.39;100.00;100384.50;4823447;29;20091;-66
2023/12/01 02:40:27;;;;;;;63.55;36.55;;;;;;;0.51;100.00;100397.28;4823304;29;20050;-65
2023/12/01 02:43:16;;;;;;;57.10;32.20;;;;;;;0.51;100.00;100397.28;4821963;29;20051;-65
2023/12/01 02:46:04;;;;;;;53.63;29.92;;;;;;;0.37;100.00;100399.97;4834319;29;20074;-66
2023/12/01 02:48:52;;;;;;;54.13;28.98;;;;;;;0.37;100.00;100397.31;4819107;29;20132;-65
2023/12/01 02:51:41;;;;;;;47.42;26.70;;;;;;;0.36;100.00;100394.81;4844859;29;20057;-64
2023/12/01 02:54:29;;;;;;;54.83;29.63;;;;;;;0.33;100.00;100389.91;4843238;29;20125;-66
2023/12/01 02:57:16;;;;;;;48.72;26.02;;;;;;;0.26;100.00;100397.94;4818452;29;20503;-65
2023/12/01 03:00:06;;;;;;;41.17;22.13;;;;;;;0.11;100.00;100406.22;4819142;29;20077;-63
2023/12/01 03:02:54;;;;;;;47.97;25.98;;;;;;;0.00;100.00;100404.22;4831354;29;20046;-64
2023/12/01 03:05:42;;;;;;;49.53;27.13;;;;;;;0.08;100.00;100395.13;4826832;29;20070;-63
2023/12/01 03:08:30;;;;;;;54.47;28.63;;;;;;;0.19;100.00;100394.47;4834608;29;20046;-65
2023/12/01 03:11:23;;;;;;;55.22;28.80;;;;;;;0.14;100.00;100391.59;4836027;29;20055;-65
2023/12/01 03:14:12;;;;;;;46.80;25.85;;;;;;;0.10;100.00;100396.56;4842883;29;20535;-64
2023/12/01 03:17:00;;;;;;;47.78;25.45;;;;;;;0.12;100.00;100399.84;4858266;29;20058;-64
2023/12/01 03:19:48;;;;;;;53.60;28.45;;;;;;;0.18;100.00;100395.50;4844842;29;20042;-65
2023/12/01 03:22:41;;;;;;;58.22;29.63;;;;;;;0.25;100.00;100401.66;4834934;29;20106;-65
2023/12/01 03:25:29;;;;;;;57.47;30.40;;;;;;;0.26;100.00;100399.81;4829662;29;20065;-67
2023/12/01 03:28:17;;;;;;;53.38;29.63;;;;;;;0.28;100.00;100398.56;4828808;29;20057;-65
2023/12/01 03:31:05;;;;;;;54.65;30.15;;;;;;;0.21;100.00;100401.25;4827698;29;20054;-65
2023/12/01 03:33:54;;;;;;;59.95;30.77;;;;;;;0.03;100.00;100403.78;4801280;29;20057;-64
2023/12/01 03:36:42;;;;;;;50.05;26.77;;;;;;;-0.02;100.00;100411.63;4826658;29;20512;-65
2023/12/01 03:39:30;;;;;;;56.72;30.38;;;;;;;-0.07;100.00;100404.22;4825701;29;20083;-65
2023/12/01 03:42:18;;;;;;;52.92;27.45;;;;;;;-0.04;100.00;100403.78;4826149;29;20062;-65
2023/12/01 03:45:07;;;;;;;57.33;29.58;;;;;;;-0.04;100.00;100414.50;4841284;29;20153;-66
2023/12/01 03:47:55;;;;;;;54.60;28.52;;;;;;;0.01;100.00;100411.19;4833290;29;20171;-66
2023/12/01 03:50:43;;;;;;;60.88;31.05;;;;;;;0.05;100.00;100416.94;4824904;29;20073;-64
2023/12/01 03:53:31;;;;;;;58.53;30.80;;;;;;;-0.01;100.00;100419.44;4825372;29;20106;-64
2023/12/01 03:56:19;;;;;;;59.13;30.67;;;;;;;-0.01;100.00;100413.25;4825364;29;20054;-64
2023/12/01 03:59:09;;;;;;;62.13;34.33;;;;;;;0.04;100.00;100421.50;4831776;29;20061;-65
2023/12/01 04:01:57;;;;;;;61.30;32.25;;;;;;;-0.04;100.00;100414.50;4841056;29;20097;-67
2023/12/01 04:04:45;;;;;;;62.80;33.55;;;;;;;-0.09;100.00;100417.00;4841148;29;20053;-65
2023/12/01 04:07:34;;;;;;;64.78;35.55;;;;;;;-0.09;100.00;100418.84;4836948;29;20052;-65
2023/12/01 04:10:23;;;;;;;63.40;33.50;;;;;;;-0.13;100.00;100423.78;4826762;29;20070;-65
2023/12/01 04:13:13;;;;;;;68.95;35.90;;;;;;;-0.03;100.00;100416.13;4816839;29;20057;-65
2023/12/01 04:16:00;;;;;;;67.00;35.67;;;;;;;-0.04;100.00;100422.53;4840199;29;20042;-66
2023/12/01 04:18:49;;;;;;;64.63;34.80;;;;;;;-0.03;100.00;100421.50;4822774;29;20521;-65
2023/12/01 04:21:37;;;;;;;66.72;34.60;;;;;;;-0.05;100.00;100418.22;4824988;29;20054;-65
2023/12/01 04:24:25;;;;;;;64.88;34.17;;;;;;;-0.04;100.00;100427.91;4824221;29;20054;-66
2023/12/01 04:27:13;;;;;;;59.22;32.17;;;;;;;0.04;100.00;100423.34;4824292;29;20106;-65
2023/12/01 04:30:01;;;;;;;65.65;35.28;;;;;;;0.10;100.00;100431.38;4826429;29;20503;-65
2023/12/01 04:32:53;;;;;;;70.70;37.65;;;;;;;0.22;100.00;100439.59;4840403;29;20050;-66
2023/12/01 04:35:44;;;;;;;66.85;35.35;;;;;;;0.33;100.00;100435.44;4830138;29;20077;-66
2023/12/01 04:38:34;;;;;;;59.75;34.75;;;;;;;0.40;100.00;100437.06;4843146;29;20058;-64
2023/12/01 04:41:22;;;;;;;64.65;37.90;;;;;;;0.41;100.00;100454.81;4840925;29;20394;-66
2023/12/01 04:44:10;;;;;;;63.78;38.30;;;;;;;0.31;100.00;100438.31;4829340;29;20137;-65
2023/12/01 04:47:00;;;;;;;56.45;35.17;;;;;;;0.28;100.00;100446.78;4841358;29;20522;-65
2023/12/01 04:49:48;;;;;;;62.72;36.28;;;;;;;0.29;100.00;100451.13;4841693;29;20065;-65
2023/12/01 04:52:36;;;;;;;60.15;36.75;;;;;;;0.35;100.00;100458.31;4839726;29;20058;-66
2023/12/01 04:55:26;;;;;;;55.20;33.80;;;;;;;0.37;100.00;100456.25;4842675;29;20522;-65
2023/12/01 04:58:14;;;;;;;52.58;32.05;;;;;;;0.40;100.00;100463.88;4842600;29;20050;-64
2023/12/01 05:01:02;;;;;;;53.83;32.60;;;;;;;0.45;100.00;100465.09;4842431;29;20423;-65
2023/12/01 05:03:50;;;;;;;51.38;30.30;;;;;;;0.42;100.00;100467.16;4828029;29;20067;-65
2023/12/01 05:06:42;;;;;;;48.55;30.65;;;;;;;0.44;100.00;100471.50;4828838;29;20049;-64
2023/12/01 05:09:30;;;;;;;48.80;29.48;;;;;;;0.39;100.00;100478.31;4827039;29;20053;-65
2023/12/01 05:12:18;;;;;;;46.25;29.08;;;;;;;0.40;100.00;100479.94;4840942;29;20050;-65
2023/12/01 05:15:15;;;;;;;48.10;29.73;;;;;;;0.34;100.00;100480.81;4827230;29;20049;-65
2023/12/01 05:18:06;;;;;;;47.97;28.27;;;;;;;0.35;100.00;100492.34;4843616;29;20061;-65
2023/12/01 05:20:54;;;;;;;46.75;30.05;;;;;;;0.36;100.00;100485.94;4842742;29;20069;-64
2023/12/01 05:23:42;;;;;;;46.22;28.63;;;;;;;0.34;100.00;100496.88;4841703;29;20057;-65
2023/12/01 05:26:30;;;;;;;48.65;30.83;;;;;;;0.38;100.00;100498.09;4834067;29;20130;-65
2023/12/01 05:29:18;;;;;;;46.08;28.35;;;;;;;0.34;100.00;100502.25;4824332;29;20081;-66
2023/12/01 05:32:06;;;;;;;42.20;27.20;;;;;;;0.29;100.00;100507.41;4823632;29;20202;-66
2023/12/01 05:34:54;;;;;;;42.17;27.05;;;;;;;0.30;100.00;100503.69;4839005;29;20530;-66
2023/12/01 05:37:47;;;;;;;50.25;29.13;;;;;;;0.26;100.00;100504.31;4824524;29;20066;-66
2023/12/01 05:40:37;;;;;;;48.05;29.42;;;;;;;0.30;100.00;100505.53;4823437;29;20073;-65
2023/12/01 05:43:25;;;;;;;48.10;30.38;;;;;;;0.37;100.00;100504.50;4824444;29;20166;-63
2023/12/01 05:46:13;;;;;;;47.00;30.20;;;;;;;0.40;100.00;100501.38;4825116;29;20062;-65
2023/12/01 05:49:02;;;;;;;53.42;32.28;;;;;;;0.41;100.00;100511.09;4823457;29;20046;-66
2023/12/01 05:51:50;;;;;;;48.10;29.38;;;;;;;0.40;100.00;100508.59;4819680;29;20055;-62
2023/12/01 05:54:52;;;;;;;45.45;27.70;;;;;;;0.48;100.00;100512.91;4823040;29;20503;-66
2023/12/01 05:57:45;;;;;;;47.08;28.27;;;;;;;0.55;100.00;100519.09;4839785;29;20050;-65
2023/12/01 06:00:33;;;;;;;50.15;28.90;;;;;;;0.60;100.00;100506.72;4826552;29;20066;-64
2023/12/01 06:03:21;;;;;;;47.00;28.85;;;;;;;0.65;100.00;100511.47;4843203;29;20137;-63
2023/12/01 06:06:11;;;;;;;45.00;27.70;;;;;;;0.64;100.00;100517.84;4842161;29;20178;-64
2023/12/01 06:08:59;;;;;;;46.38;28.80;;;;;;;0.53;100.00;100515.78;4825105;29;20078;-65
2023/12/01 06:11:47;;;;;;;45.00;28.13;;;;;;;0.45;100.00;100521.38;4836149;29;20152;-66
2023/12/01 06:14:35;;;;;;;46.72;28.95;;;;;;;0.37;100.00;100511.72;4827652;29;20058;-65
2023/12/01 06:17:23;;;;;;;49.00;29.13;;;;;;;0.39;100.00;100515.84;4829704;29;20406;-65
2023/12/01 06:20:17;;;;;;;46.45;29.20;;;;;;;0.46;100.00;100523.03;4828904;29;20058;-65
2023/12/01 06:23:06;;;;;;;45.78;27.42;;;;;;;0.47;100.00;100522.00;4824750;29;20507;-66
2023/12/01 06:25:57;;;;;;;45.35;28.70;;;;;;;0.45;100.00;100527.56;4829033;29;20051;-63
2023/12/01 06:28:45;;;;;;;45.80;27.88;;;;;;;0.47;100.00;100524.69;4838092;29;20046;-61
2023/12/01 06:31:33;;;;;;;50.65;29.00;;;;;;;0.50;100.00;100526.94;4832165;29;20138;-65
2023/12/01 06:34:21;;;;;;;48.65;29.50;;;;;;;0.50;100.00;100522.41;4821378;29;20046;-64
2023/12/01 06:37:09;;;;;;;49.10;29.42;;;;;;;0.48;100.00;100524.50;4850991;29;20046;-67
2023/12/01 06:39:57;;;;;;;47.58;27.55;;;;;;;0.45;100.00;100526.75;4843155;29;20081;-62
2023/12/01 06:42:53;;;;;;;47.55;28.45;;;;;;;0.49;100.00;100533.34;4831651;29;20115;-66
2023/12/01 06:45:41;;;;;;;46.33;28.65;;;;;;;0.56;100.00;100529.63;4823723;29;20069;-65
2023/12/01 06:48:31;;;;;;;47.25;28.35;;;;;;;0.58;100.00;100532.09;4813249;29;20058;-65
2023/12/01 06:51:19;;;;;;;44.08;28.10;;;;;;;0.60;100.00;100516.59;4836737;29;20051;-65
2023/12/01 06:54:10;;;;;;;42.85;27.77;;;;;;;0.62;100.00;100531.44;4823465;29;20065;-66
2023/12/01 06:56:58;;;;;;;43.03;26.98;;;;;;;0.61;100.00;100542.41;4827773;29;20050;-66
2023/12/01 06:59:46;;;;;;;44.78;27.45;;;;;;;0.58;100.00;100540.97;4834801;29;20046;-66
2023/12/01 07:02:37;;;;;;;41.20;26.02;;;;;;;0.61;100.00;100545.91;4840602;29;20083;-67
2023/12/01 07:05:27;;;;;;;43.58;27.48;;;;;;;0.63;100.00;100548.38;4840636;29;20046;-65
2023/12/01 07:08:15;;;;;;;41.10;26.50;;;;;;;0.66;100.00;100547.94;4831449;29;20632;-65
2023/12/01 07:11:04;;;;;;;41.38;26.10;;;;;;;0.62;100.00;100552.06;4811261;29;20050;-66
2023/12/01 07:13:53;;;;;;;41.72;26.27;;;;;;;0.57;100.00;100559.91;4823485;29;20576;-65
2023/12/01 07:16:45;;;;;;;41.70;27.20;;;;;;;0.53;100.00;100567.56;4614059;29;10001119;-66
2023/12/01 07:19:34;;;;;;;40.75;25.27;;;;;;;0.54;100.00;100566.53;4822718;29;20107;-66
2023/12/01 07:22:23;;;;;;;36.92;25.00;;;;;;;0.57;100.00;100563.41;4819001;29;20054;-65
2023/12/01 07:25:21;;;;;;;38.95;24.88;;;;;;;0.60;100.00;100562.19;4819983;29;20062;-66
2023/12/01 07:28:11;;;;;;;42.08;25.45;;;;;;;0.56;100.00;100569.00;4824603;29;20423;-67
2023/12/01 07:31:00;;;;;;;37.45;23.33;;;;;;;0.54;100.00;100577.25;4834854;29;20061;-65
2023/12/01 07:33:48;;;;;;;37.70;23.95;;;;;;;0.56;100.00;100579.72;4846600;29;20068;-65
2023/12/01 07:36:36;;;;;;;35.13;22.08;;;;;;;0.54;100.00;100584.47;4844407;29;20396;-66
2023/12/01 07:39:28;;;;;;;35.58;20.98;;;;;;;0.52;100.00;100573.94;4827976;29;20047;-65
2023/12/01 07:42:17;;;;;;;33.85;21.15;;;;;;;0.50;100.00;100572.50;4828953;29;20054;-66
2023/12/01 07:45:06;;;;;;;31.83;21.08;;;;;;;0.54;100.00;100574.56;4816012;29;20058;-66
2023/12/01 07:47:56;;;;;;;31.00;19.98;;;;;;;0.46;100.00;100573.94;4825632;29;20154;-67
2023/12/01 07:50:45;;;;;;;32.00;19.67;;;;;;;0.48;100.00;100582.59;4830301;29;20422;-64
2023/12/01 07:53:33;;;;;;;27.88;18.35;;;;;;;0.51;100.00;100577.66;4828952;29;20137;-65
2023/12/01 07:56:22;;;;;;;28.00;18.52;;;;;;;0.52;100.00;100579.31;4825307;29;20152;-67
2023/12/01 07:59:11;;;;;;;28.55;19.05;;;;;;;0.50;100.00;100576.00;4812998;29;20054;-66
2023/12/01 08:01:59;;;;;;;27.80;17.98;;;;;;;0.58;100.00;100581.16;4827809;29;20143;-66
2023/12/01 08:04:49;;;;;;;26.33;17.13;;;;;;;0.60;100.00;100575.56;4814488;29;20438;-65
2023/12/01 08:07:37;;;;;;;25.63;17.17;;;;;;;0.55;100.00;100580.75;4838916;29;20425;-66
2023/12/01 08:10:27;;;;;;;26.55;17.10;;;;;;;0.46;100.00;100580.16;4844146;29;20054;-65
2023/12/01 08:13:21;;;;;;;27.17;17.10;;;;;;;0.45;100.00;100588.38;4814368;29;20050;-66
2023/12/01 08:16:09;;;;;;;26.80;17.13;;;;;;;0.79;100.00;100573.91;4826989;29;20046;-67
2023/12/01 08:18:58;;;;;;;25.58;16.15;;;;;;;0.90;100.00;100581.31;4813326;29;20107;-66
2023/12/01 08:21:46;;;;;;;27.42;17.27;;;;;;;0.72;100.00;100589.19;4832163;29;20057;-66
2023/12/01 08:24:34;;;;;;;29.52;16.73;;;;;;;0.60;100.00;100591.66;4845429;29;20129;-66
2023/12/01 08:27:28;;;;;;;24.05;16.00;;;;;;;0.63;100.00;100596.63;4844439;29;20058;-66
2023/12/01 08:30:16;;;;;;;26.27;16.88;;;;;;;0.58;100.00;100599.13;4826907;29;20129;-66
2023/12/01 08:33:07;;;;;;;25.17;16.58;;;;;;;0.59;100.00;100600.75;4825962;29;20058;-66
2023/12/01 08:35:55;;;;;;;26.42;17.00;;;;;;;0.50;100.00;100610.03;4840435;29;20046;-67
2023/12/01 08:38:43;;;;;;;27.10;18.60;;;;;;;0.38;100.00;100605.28;4843421;29;20110;-66
2023/12/01 08:41:31;;;;;;;26.42;17.42;;;;;;;0.37;100.00;100609.00;4842611;29;20533;-67
2023/12/01 08:44:20;;;;;;;27.33;19.13;;;;;;;0.35;100.00;100611.06;4840800;29;20050;-66
2023/12/01 08:47:08;;;;;;;27.77;18.58;;;;;;;0.36;100.00;100615.41;4838152;29;20066;-66
2023/12/01 08:49:56;;;;;;;28.45;18.80;;;;;;;0.32;100.00;100614.16;4812313;29;20096;-67
2023/12/01 08:52:45;;;;;;;27.00;17.90;;;;;;;0.36;100.00;100623.44;4827449;29;20058;-66
2023/12/01 08:55:33;;;;;;;24.90;17.52;;;;;;;0.42;100.00;100624.47;4826453;29;20485;-66
2023/12/01 08:58:22;;;;;;;28.17;18.20;;;;;;;0.49;100.00;100627.97;4813816;29;20086;-66
2023/12/01 09:01:10;;;;;;;25.23;17.23;;;;;;;0.52;100.00;100626.75;4825365;29;20046;-67
2023/12/01 09:03:58;;;;;;;25.75;16.85;;;;;;;0.48;100.00;100625.50;4824580;29;20054;-66
2023/12/01 09:06:46;;;;;;;25.75;15.93;;;;;;;0.55;100.00;100632.50;4826256;29;20076;-66
2023/12/01 09:09:34;;;;;;;24.08;15.43;;;;;;;0.62;100.00;100627.13;4832663;29;20072;-67
2023/12/01 09:12:22;;;;;;;24.80;16.60;;;;;;;0.73;100.00;100629.19;4817672;29;20069;-66
2023/12/01 09:15:11;;;;;;;25.42;16.30;;;;;;;0.81;100.00;100628.16;4830813;29;20123;-67
2023/12/01 09:17:59;;;;;;;26.90;15.48;;;;;;;0.93;100.00;100636.41;4823483;29;20046;-66
2023/12/01 09:20:47;;;;;;;26.30;15.45;;;;;;;0.98;100.00;100625.84;4832242;29;20050;-65
2023/12/01 09:23:40;;;;;;;27.35;17.48;;;;;;;0.89;100.00;100633.31;4828335;29;20538;-66
2023/12/01 09:26:31;;;;;;;24.73;16.73;;;;;;;0.81;100.00;100637.03;4508298;29;10000410;-67
2023/12/01 09:29:19;;;;;;;26.15;16.85;;;;;;;0.74;100.00;100649.59;4830088;29;20122;-66
2023/12/01 09:32:07;;;;;;;27.25;16.88;;;;;;;0.92;100.00;100654.34;4843165;29;20054;-66
2023/12/01 09:34:55;;;;;;;28.27;17.42;;;;;;;0.99;100.00;100654.34;4825915;29;20050;-68
2023/12/01 09:37:43;;;;;;;25.15;16.48;;;;;;;0.95;100.00;100656.59;4824044;29;20145;-67
2023/12/01 09:40:36;;;;;;;27.73;18.42;;;;;;;0.79;100.00;100652.50;4825668;29;20051;-66
2023/12/01 09:43:24;;;;;;;27.02;17.60;;;;;;;0.60;100.00;100656.00;4822844;29;20051;-66
2023/12/01 09:46:13;;;;;;;29.10;17.50;;;;;;;0.55;100.00;100653.13;4823702;29;20077;-67
2023/12/01 09:49:04;;;;;;;27.58;17.65;;;;;;;0.54;100.00;100659.53;4806257;29;20487;-66
2023/12/01 09:51:52;;;;;;;26.70;18.25;;;;;;;0.51;100.00;100660.78;4805301;29;20131;-66
2023/12/01 09:54:40;;;;;;;27.77;17.65;;;;;;;0.57;100.00;100664.47;4806020;29;20134;-66
2023/12/01 09:57:49;;;;;;;28.63;18.85;;;;;;;0.62;100.00;100670.84;4806043;29;20046;-66
2023/12/01 10:00:38;;;;;;;28.00;18.88;;;;;;;0.57;100.00;100672.50;4804037;29;20132;-67
2023/12/01 10:03:27;;;;;;;29.02;19.42;;;;;;;0.55;100.00;100674.56;4805223;29;20704;-67
2023/12/01 10:06:16;;;;;;;30.02;19.75;;;;;;;0.59;100.00;100675.81;4805514;29;20078;-66
2023/12/01 10:09:09;;;;;;;32.28;18.52;;;;;;;0.62;100.00;100675.41;4805867;29;20504;-66
2023/12/01 10:12:12;;;;;;;24.83;16.08;;;;;;;0.66;100.00;100671.28;4805520;29;20055;-66
2023/12/01 10:15:00;;;;;;;25.85;17.38;;;;;;;0.64;100.00;100674.16;4822549;29;20467;-65
2023/12/01 10:17:48;;;;;;;25.40;16.63;;;;;;;0.66;100.00;100670.47;4805748;29;20283;-65
2023/12/01 10:20:37;;;;;;;25.75;16.42;;;;;;;0.60;100.00;100672.09;4805943;29;20050;-66
2023/12/01 10:23:25;;;;;;;27.58;17.30;;;;;;;0.56;100.00;100668.19;4803690;29;20533;-66
2023/12/01 10:26:13;;;;;;;26.50;17.27;;;;;;;0.41;100.00;100669.22;4805521;29;20058;-68
2023/12/01 10:29:01;;;;;;;24.95;16.85;;;;;;;0.45;100.00;100674.16;4806634;29;20051;-66
2023/12/01 10:31:49;;;;;;;28.25;17.85;;;;;;;0.51;100.00;100676.03;4805737;29;20055;-65
2023/12/01 10:34:38;;;;;;;22.40;15.65;;;;;;;0.38;100.00;100682.19;4803783;29;20058;-65
2023/12/01 10:37:26;;;;;;;24.38;15.75;;;;;;;0.48;100.00;100687.16;4805247;29;20138;-66
2023/12/01 10:40:15;;;;;;;24.08;16.13;;;;;;;0.53;100.00;100674.78;4816045;29;20051;-66
2023/12/01 10:43:03;;;;;;;25.17;15.90;;;;;;;0.70;100.00;100674.34;4824281;29;20042;-66
2023/12/01 10:45:52;;;;;;;25.02;16.50;;;;;;;0.68;100.00;100668.41;4821630;29;20058;-65
2023/12/01 10:48:40;;;;;;;27.35;18.48;;;;;;;0.57;100.00;100672.50;4790796;29;20320;-63
2023/12/01 10:51:28;;;;;;;24.67;16.85;;;;;;;0.44;100.00;100676.03;4817946;29;20088;-62
2023/12/01 10:54:17;;;;;;;26.20;17.35;;;;;;;0.34;100.00;100673.75;4808164;29;20113;-66
2023/12/01 10:57:14;;;;;;;25.83;16.60;;;;;;;0.39;100.00;100667.78;4808706;29;20055;-62
2023/12/01 11:00:05;;;;;;;23.45;15.90;;;;;;;0.46;100.00;100662.41;4818427;29;20271;-64
2023/12/01 11:02:53;;;;;;;21.25;11.77;;;;;;;0.78;100.00;100675.00;4835785;29;20128;-65
2023/12/01 11:05:42;;;;;;;27.60;17.73;;;;;;;0.63;100.00;100664.47;4821283;29;20082;-67
2023/12/01 11:08:49;;;;;;;25.05;16.42;;;;;;;0.51;100.00;100662.63;4814109;29;20054;-65
2023/12/01 11:11:43;;;;;;;25.33;18.30;;;;;;;0.38;100.00;100658.88;4812676;29;20516;-67
2023/12/01 11:14:31;;;;;;;26.88;17.50;;;;;;;0.38;100.00;100653.53;4809093;29;20527;-66
2023/12/01 11:17:19;;;;;;;27.80;18.70;;;;;;;0.50;100.00;100660.97;4816519;29;20053;-66
2023/12/01 11:20:31;;;;;;;24.70;17.08;;;;;;;0.52;100.00;100651.69;4818741;29;20106;-68
2023/12/01 11:23:19;;;;;;;26.63;18.05;;;;;;;0.42;100.00;100654.78;4811059;29;20089;-65
2023/12/01 11:26:08;;;;;;;26.77;17.13;;;;;;;0.26;100.00;100649.81;4808991;29;20111;-66
2023/12/01 11:29:09;;;;;;;26.88;18.33;;;;;;;0.15;100.00;100655.78;4825525;29;20042;-65
2023/12/01 11:32:00;;;;;;;26.63;16.77;;;;;;;0.12;100.00;100665.06;4825537;29;20423;-65
2023/12/01 11:35:06;;;;;;;27.17;16.05;;;;;;;0.13;100.00;100665.88;4827407;29;20138;-64
2023/12/01 11:37:59;;;;;;;26.85;17.13;;;;;;;0.16;100.00;100671.63;4819323;29;20055;-66
2023/12/01 11:40:47;;;;;;;23.88;16.30;;;;;;;0.19;100.00;100665.91;4810907;29;20053;-70
2023/12/01 11:43:38;;;;;;;25.30;16.58;;;;;;;0.24;100.00;100673.31;4153543;29;10000970;-66
2023/12/01 11:46:28;;;;;;;27.48;17.58;;;;;;;0.22;100.00;100670.03;4807151;29;20058;-67
2023/12/01 11:49:16;;;;;;;25.95;17.20;;;;;;;0.12;100.00;100674.91;4805115;29;20395;-66
2023/12/01 11:52:24;;;;;;;28.45;18.75;;;;;;;0.08;100.00;100674.50;4794813;29;20330;-67
2023/12/01 11:55:16;;;;;;;28.40;18.83;;;;;;;0.05;100.00;100671.41;4810081;29;20062;-66
2023/12/01 11:58:05;;;;;;;25.73;17.30;;;;;;;0.12;100.00;100680.28;4817479;29;20062;-67
2023/12/01 12:00:53;;;;;;;27.13;16.92;;;;;;;0.23;100.00;100679.69;4808020;29;20156;-68
2023/12/01 12:03:41;;;;;;;24.35;16.30;;;;;;;0.35;100.00;100683.41;4824041;29;20110;-67
2023/12/01 12:06:34;;;;;;;25.80;17.20;;;;;;;0.48;100.00;100679.09;4824773;29;20047;-68
2023/12/01 12:09:22;;;;;;;23.63;15.82;;;;;;;0.51;100.00;100681.41;4806388;29;20108;-69
2023/12/01 12:12:13;;;;;;;24.02;15.82;;;;;;;0.49;100.00;100689.63;4816595;29;20055;-67
2023/12/01 12:15:09;;;;;;;27.40;16.92;;;;;;;0.56;100.00;100695.00;4820947;29;20084;-66
2023/12/01 12:17:58;;;;;;;27.98;17.00;;;;;;;0.58;100.00;100690.28;4822213;29;20047;-67
2023/12/01 12:20:46;;;;;;;26.00;16.67;;;;;;;0.58;100.00;100696.44;4818684;29;20058;-65
2023/12/01 12:23:34;;;;;;;25.70;16.50;;;;;;;0.49;100.00;100696.84;4804156;29;20053;-66
2023/12/01 12:26:24;;;;;;;25.98;15.95;;;;;;;0.51;100.00;100692.13;4822732;29;20054;-63
2023/12/01 12:29:12;;;;;;;23.98;16.25;;;;;;;0.54;100.00;100695.19;4820553;29;20134;-65
2023/12/01 12:32:01;;;;;;;25.70;16.33;;;;;;;0.45;100.00;100704.47;4824129;29;20061;-65
2023/12/01 12:34:50;;;;;;;26.85;16.90;;;;;;;0.45;100.00;100696.41;4809104;29;20054;-66
2023/12/01 12:37:38;;;;;;;23.60;15.93;;;;;;;0.46;100.00;100708.81;4804296;29;20111;-70
2023/12/01 12:40:31;;;;;;;27.17;16.60;;;;;;;0.32;100.00;100707.94;4807147;29;20054;-65
2023/12/01 12:43:21;;;;;;;25.45;16.02;;;;;;;0.37;100.00;100700.13;4799715;29;20092;-67
2023/12/01 12:46:13;;;;;;;27.45;17.63;;;;;;;0.49;100.00;100702.22;4823945;29;20058;-67
2023/12/01 12:49:03;;;;;;;24.80;16.05;;;;;;;0.54;100.00;100699.75;4814806;29;20066;-65